Time;durP1;ratioP1;P1;durP2;ratioP2;P2;SDS_P1;SDS_P2;PMS_P1;PMS_P2;Temp;Humidity;BMP_temperature;BMP_pressure;BME280_temperature;BME280_humidity;BME280_pressure;Samples;Min_cycle;Max_cycle;Signal;HPM_P1;HPM_P2
2022/09/26 00:01:26;;;;;;;26.65;17.90;;;;;;;14.34;83.77;100371.97;4995609;28;20128;-70
2022/09/26 00:03:55;;;;;;;26.85;17.92;;;;;;;13.57;83.64;100240.41;5002890;28;20084;-70
2022/09/26 00:06:21;;;;;;;29.20;17.23;;;;;;;14.15;83.94;100342.38;5006284;28;20049;-69
2022/09/26 00:08:48;;;;;;;27.42;18.50;;;;;;;14.35;83.68;100361.41;5002502;28;20061;-70
2022/09/26 00:11:19;;;;;;;23.23;17.35;;;;;;;14.18;86.82;100347.59;4993763;28;20054;-70
2022/09/26 00:13:45;;;;;;;24.13;16.77;;;;;;;13.92;86.84;100343.56;4996931;28;20053;-69
2022/09/26 00:16:12;;;;;;;28.08;19.48;;;;;;;13.27;87.18;100218.81;5015353;28;20076;-69
2022/09/26 00:18:38;;;;;;;35.60;19.60;;;;;;;13.33;87.40;100213.50;5022351;28;20053;-70
2022/09/26 00:21:07;;;;;;;25.88;18.75;;;;;;;13.21;88.33;100205.75;5011260;28;20107;-70
2022/09/26 00:23:32;;;;;;;26.73;17.75;;;;;;;13.44;88.43;100239.72;5025545;28;20077;-71
2022/09/26 00:25:58;;;;;;;32.63;17.92;;;;;;;13.61;87.84;100285.16;5014762;28;20119;-69
2022/09/26 00:28:24;;;;;;;22.48;18.17;;;;;;;13.75;87.68;100305.19;5013770;28;20091;-70
2022/09/26 00:30:50;;;;;;;27.67;18.05;;;;;;;14.20;86.75;100345.78;5018989;28;20085;-70
2022/09/26 00:33:15;;;;;;;26.08;18.83;;;;;;;13.75;86.91;100252.44;5019494;28;20480;-70
2022/09/26 00:35:51;;;;;;;25.88;18.90;;;;;;;14.20;88.54;100359.00;5016957;28;20843;-69
2022/09/26 00:38:18;;;;;;;36.58;18.73;;;;;;;14.17;88.85;100343.22;5011001;28;20091;-69
2022/09/26 00:40:44;;;;;;;26.20;19.15;;;;;;;13.37;88.44;100204.66;5010325;28;20651;-69
2022/09/26 00:43:35;;;;;;;24.88;18.55;;;;;;;14.15;89.50;100340.59;5016553;28;20477;-70
2022/09/26 00:46:20;;;;;;;25.67;19.00;;;;;;;14.04;89.94;100334.59;5030238;28;20053;-69
2022/09/26 00:49:03;;;;;;;25.10;18.45;;;;;;;13.91;89.72;100304.06;5021919;28;20057;-69
2022/09/26 00:51:29;;;;;;;24.70;19.35;;;;;;;14.01;90.32;100333.78;5022510;28;20580;-71
2022/09/26 00:53:54;;;;;;;23.70;18.13;;;;;;;13.79;90.00;100280.47;5020417;28;20057;-71
2022/09/26 00:56:26;;;;;;;28.23;17.83;;;;;;;13.16;90.64;100202.28;5029650;28;20583;-71
2022/09/26 00:59:21;;;;;;;25.70;17.75;;;;;;;13.34;89.72;100212.59;5006935;28;20037;-70
2022/09/26 01:01:47;;;;;;;27.58;17.60;;;;;;;13.36;89.15;100178.34;5019555;28;20037;-71
2022/09/26 01:04:14;;;;;;;28.55;18.13;;;;;;;14.00;88.97;100280.16;5019602;28;20037;-70
2022/09/26 01:06:40;;;;;;;27.13;19.10;;;;;;;14.23;88.92;100316.72;5036002;28;20045;-71
2022/09/26 01:09:07;;;;;;;25.75;16.05;;;;;;;13.41;89.94;100177.34;5021778;28;20072;-71
2022/09/26 01:11:35;;;;;;;22.17;15.95;;;;;;;14.06;89.88;100297.66;5014623;28;20110;-71
2022/09/26 01:14:01;;;;;;;30.48;17.60;;;;;;;14.04;90.16;100287.13;5019972;28;20073;-71
2022/09/26 01:16:27;;;;;;;22.35;16.58;;;;;;;14.12;89.69;100282.59;5029764;28;20488;-71
2022/09/26 01:18:53;;;;;;;24.95;18.23;;;;;;;14.16;90.68;100293.97;5026610;28;20077;-71
2022/09/26 01:21:49;;;;;;;27.50;18.45;;;;;;;13.57;90.69;100190.31;5021038;28;20065;-71
2022/09/26 01:24:49;;;;;;;24.15;17.35;;;;;;;14.26;90.83;100302.63;5037859;28;20061;-72
2022/09/26 01:27:34;;;;;;;24.52;18.35;;;;;;;14.29;90.79;100307.84;5016735;28;20050;-72
2022/09/26 01:30:18;;;;;;;20.35;17.35;;;;;;;14.26;91.03;100311.41;5026109;28;20041;-72
2022/09/26 01:33:01;;;;;;;26.75;18.95;;;;;;;14.25;90.79;100316.69;5025791;28;20156;-71
2022/09/26 01:35:50;;;;;;;24.92;16.52;;;;;;;14.15;91.41;100305.41;5027366;28;20052;-72
2022/09/26 01:38:25;;;;;;;24.00;16.27;;;;;;;14.18;91.00;100315.06;5027734;28;20111;-71
2022/09/26 01:41:15;;;;;;;25.25;17.45;;;;;;;14.25;91.24;100314.06;5021863;28;20540;-70
2022/09/26 01:43:55;;;;;;;24.33;17.05;;;;;;;14.23;91.56;100318.47;5028094;28;20044;-71
2022/09/26 01:46:20;;;;;;;31.13;18.77;;;;;;;14.23;91.64;100302.66;5023602;28;20068;-71
2022/09/26 01:48:54;;;;;;;24.73;16.35;;;;;;;14.33;90.51;100293.69;5024539;28;20057;-71
2022/09/26 01:51:40;;;;;;;22.38;16.73;;;;;;;14.29;90.72;100294.63;5027316;28;20041;-71
2022/09/26 01:54:14;;;;;;;26.45;17.60;;;;;;;13.77;90.11;100211.09;5023534;28;20049;-71
2022/09/26 01:56:42;;;;;;;26.10;17.08;;;;;;;13.46;90.38;100164.09;5017644;28;20069;-72
2022/09/26 01:59:16;;;;;;;22.30;16.05;;;;;;;13.38;90.72;100176.53;5028737;28;20045;-72
2022/09/26 02:01:45;;;;;;;22.73;17.92;;;;;;;13.40;90.67;100172.13;5030540;28;20033;-71
2022/09/26 02:04:15;;;;;;;29.08;18.52;;;;;;;13.71;90.78;100218.19;5019101;28;20069;-71
2022/09/26 02:07:07;;;;;;;31.83;17.40;;;;;;;14.33;90.11;100320.09;5028269;28;20063;-72
2022/09/26 02:09:58;;;;;;;27.42;16.27;;;;;;;14.41;89.04;100309.38;5023743;28;20051;-72
2022/09/26 02:12:35;;;;;;;28.40;18.50;;;;;;;14.48;86.54;100303.09;5015841;28;20049;-70
2022/09/26 02:15:06;;;;;;;24.08;17.65;;;;;;;14.32;86.36;100276.97;5013610;28;20073;-71
2022/09/26 02:17:41;;;;;;;33.50;19.27;;;;;;;13.64;81.98;100178.75;5033299;28;20042;-71
2022/09/26 02:20:15;;;;;;;28.75;18.38;;;;;;;14.51;82.52;100297.75;5032964;28;20041;-71
2022/09/26 02:22:41;;;;;;;26.73;18.92;;;;;;;14.50;85.03;100301.31;5023204;28;20040;-71
2022/09/26 02:25:07;;;;;;;34.60;17.88;;;;;;;13.92;83.51;100192.34;5034861;28;20493;-72
2022/09/26 02:27:33;;;;;;;28.67;16.65;;;;;;;14.60;83.25;100299.41;5017345;28;20046;-72
2022/09/26 02:29:59;;;;;;;30.25;19.38;;;;;;;13.88;82.21;100188.03;5026749;28;20077;-72
2022/09/26 02:32:31;;;;;;;24.98;17.83;;;;;;;14.34;84.02;100269.88;5029120;28;20107;-72
2022/09/26 02:34:57;;;;;;;28.65;17.83;;;;;;;13.65;82.95;100152.38;5038420;28;20049;-72
2022/09/26 02:37:24;;;;;;;27.98;18.02;;;;;;;14.51;81.96;100272.22;5032338;28;20107;-69
2022/09/26 02:39:51;;;;;;;25.67;18.15;;;;;;;13.90;80.96;100160.72;5021545;28;20046;-69
2022/09/26 02:42:22;;;;;;;29.23;19.45;;;;;;;14.70;81.85;100306.25;5039639;28;20076;-71
2022/09/26 02:45:11;;;;;;;30.50;19.52;;;;;;;14.69;83.58;100300.09;5040234;28;20049;-71
2022/09/26 02:47:58;;;;;;;22.95;19.02;;;;;;;14.68;84.46;100302.75;5045358;28;20497;-71
2022/09/26 02:50:41;;;;;;;27.13;18.70;;;;;;;14.68;83.55;100308.03;5033498;28;20041;-71
2022/09/26 02:53:19;;;;;;;;;;;;;;;14.66;84.60;100305.44;5024128;28;20045;-69
2022/09/26 02:56:02;;;;;;;41.25;17.58;;;;;;;13.93;86.37;100199.38;5021396;28;20473;-70
2022/09/26 02:58:59;;;;;;;41.30;19.08;;;;;;;13.96;87.10;100198.47;5037979;28;20032;-70
2022/09/26 03:01:41;;;;;;;25.50;20.60;;;;;;;14.63;87.17;100299.34;5032063;28;20057;-71
2022/09/26 03:04:40;;;;;;;29.90;18.63;;;;;;;14.60;87.72;100300.25;5026509;28;20103;-71
2022/09/26 03:07:13;;;;;;;29.73;20.75;;;;;;;13.81;88.12;100183.75;5015614;28;20057;-71
2022/09/26 03:09:41;;;;;;;31.20;20.70;;;;;;;14.43;87.85;100284.69;5042588;28;20041;-71
2022/09/26 03:12:08;;;;;;;26.00;20.20;;;;;;;13.80;88.00;100163.56;5018131;28;20056;-70
2022/09/26 03:14:37;;;;;;;27.88;19.08;;;;;;;13.84;87.93;100162.63;5002395;28;20140;-69
2022/09/26 03:17:03;;;;;;;29.27;20.80;;;;;;;13.79;88.78;100167.06;4996126;28;20049;-71
2022/09/26 03:19:37;;;;;;;28.48;19.58;;;;;;;14.56;87.65;100293.28;5007748;28;20026;-71
2022/09/26 03:22:03;;;;;;;32.05;19.85;;;;;;;14.65;86.78;100281.69;4991524;28;20061;-69
2022/09/26 03:24:29;;;;;;;27.30;19.45;;;;;;;13.75;88.28;100125.84;4994698;28;20058;-71
2022/09/26 03:26:55;;;;;;;28.00;20.25;;;;;;;14.62;87.40;100273.84;4997006;28;20470;-71
2022/09/26 03:29:20;;;;;;;30.30;19.80;;;;;;;14.56;89.13;100270.41;5007991;28;20486;-71
2022/09/26 03:31:48;;;;;;;23.67;18.48;;;;;;;13.79;89.88;100145.97;4998478;28;20081;-72
2022/09/26 03:34:15;;;;;;;31.67;18.95;;;;;;;13.67;88.38;100131.25;4996637;28;20034;-72
2022/09/26 03:36:40;;;;;;;32.50;20.00;;;;;;;13.73;86.32;100133.78;4995075;28;20060;-72
2022/09/26 03:39:06;;;;;;;43.88;21.92;;;;;;;13.64;85.66;100126.91;5006853;28;20041;-72
2022/09/26 03:41:31;;;;;;;37.53;20.55;;;;;;;14.25;85.21;100245.44;4998442;28;20120;-72
2022/09/26 03:43:57;;;;;;;27.40;19.13;;;;;;;13.82;86.50;100156.50;5012250;28;20069;-72
2022/09/26 03:46:23;;;;;;;31.88;20.08;;;;;;;14.30;86.71;100262.06;5006620;28;20398;-71
2022/09/26 03:48:49;;;;;;;35.08;20.42;;;;;;;14.22;85.16;100234.94;4985514;28;20050;-71
2022/09/26 03:51:15;;;;;;;39.58;20.55;;;;;;;14.35;85.37;100282.22;4994893;28;20495;-71
2022/09/26 03:53:42;;;;;;;27.35;18.50;;;;;;;14.33;89.28;100280.50;5020398;28;20060;-72
2022/09/26 03:56:10;;;;;;;20.88;17.45;;;;;;;13.92;90.90;100279.41;4986675;28;20407;-72
2022/09/26 03:58:36;;;;;;;29.13;17.80;;;;;;;13.85;90.69;100285.69;5016292;28;20092;-72
2022/09/26 04:01:06;;;;;;;26.33;16.13;;;;;;;13.53;88.73;100184.19;5008303;28;20038;-70
2022/09/26 04:03:36;;;;;;;23.20;16.85;;;;;;;14.27;87.94;100283.22;5010967;28;20058;-70
2022/09/26 04:06:02;;;;;;;23.30;15.82;;;;;;;13.28;87.82;100131.88;4998246;28;20057;-72
2022/09/26 04:08:28;;;;;;;20.27;15.18;;;;;;;14.33;87.88;100281.34;5003307;28;20060;-73
2022/09/26 04:11:05;;;;;;;26.23;16.60;;;;;;;14.20;87.18;100285.09;5003330;28;20933;-72
2022/09/26 04:13:31;;;;;;;24.15;15.43;;;;;;;14.27;87.33;100276.19;5012801;28;20087;-70
2022/09/26 04:16:04;;;;;;;22.70;15.15;;;;;;;14.17;87.26;100250.00;5026802;28;20091;-72
2022/09/26 04:18:30;;;;;;;21.98;18.45;;;;;;;13.54;86.38;100129.72;5017793;28;20577;-72
2022/09/26 04:21:02;;;;;;;26.60;17.77;;;;;;;14.34;86.33;100261.97;5012344;28;20049;-71
2022/09/26 04:23:29;;;;;;;24.67;17.83;;;;;;;14.32;86.72;100247.94;5035351;28;20086;-71
2022/09/26 04:25:55;;;;;;;35.20;19.77;;;;;;;14.45;86.45;100279.41;5018215;28;20065;-71
2022/09/26 04:28:22;;;;;;;38.42;21.02;;;;;;;13.71;89.01;100154.03;5035046;28;20555;-70
2022/09/26 04:30:48;;;;;;;41.80;21.77;;;;;;;14.32;89.94;100265.53;5016880;28;20049;-70
2022/09/26 04:33:14;;;;;;;31.60;19.95;;;;;;;13.99;89.55;100223.00;5014441;28;20050;-70
2022/09/26 04:35:39;;;;;;;32.88;22.50;;;;;;;14.27;89.77;100273.53;5021904;28;20127;-70
2022/09/26 04:38:05;;;;;;;36.58;21.38;;;;;;;13.55;88.23;100132.31;5015356;28;20465;-70
2022/09/26 04:40:30;;;;;;;23.42;17.55;;;;;;;14.37;88.41;100247.84;5010213;28;20033;-71
2022/09/26 04:42:57;;;;;;;31.95;19.88;;;;;;;14.51;86.21;100253.72;5033572;28;20037;-70
2022/09/26 04:45:23;;;;;;;22.70;18.45;;;;;;;14.27;86.28;100238.38;5026522;28;20474;-70
2022/09/26 04:47:49;;;;;;;40.67;19.23;;;;;;;13.72;86.61;100113.59;5030000;28;20033;-70
2022/09/26 04:50:15;;;;;;;20.30;16.13;;;;;;;14.56;87.99;100248.41;5025138;28;20050;-70
2022/09/26 04:52:40;;;;;;;31.13;19.00;;;;;;;14.45;87.23;100205.47;5006709;28;20069;-70
2022/09/26 04:55:06;;;;;;;22.63;19.15;;;;;;;14.72;86.58;100241.91;5027327;28;20041;-69
2022/09/26 04:57:32;;;;;;;33.50;20.10;;;;;;;14.48;87.93;100189.56;5022981;28;20057;-72
2022/09/26 04:59:57;;;;;;;34.92;21.80;;;;;;;14.77;88.93;100240.09;5018497;28;20424;-70
2022/09/26 05:02:22;;;;;;;30.88;20.30;;;;;;;14.74;88.46;100210.22;5018838;28;20414;-71
2022/09/26 05:04:49;;;;;;;35.83;20.58;;;;;;;14.16;87.42;100093.41;5017378;28;20060;-71
2022/09/26 05:07:17;;;;;;;46.60;21.52;;;;;;;14.97;86.86;100220.31;5021724;28;20805;-70
2022/09/26 05:09:43;;;;;;;42.30;23.48;;;;;;;14.26;83.13;100088.84;5014435;28;20104;-71
2022/09/26 05:12:09;;;;;;;40.05;20.50;;;;;;;15.09;76.26;100232.38;5021122;28;20057;-71
2022/09/26 05:14:35;;;;;;;30.23;20.15;;;;;;;15.15;76.41;100242.84;5016855;28;20362;-71
2022/09/26 05:17:01;;;;;;;32.83;21.45;;;;;;;15.18;71.42;100250.69;5018639;28;20060;-72
2022/09/26 05:19:26;;;;;;;37.58;21.60;;;;;;;14.85;74.21;100171.25;5024464;28;20430;-71
2022/09/26 05:21:52;;;;;;;29.63;20.83;;;;;;;15.26;73.00;100232.88;5010531;28;20685;-70
2022/09/26 05:27:07;;;;;;;27.27;18.27;;;;;;;15.27;66.04;100236.41;5023632;28;20517;-73
2022/09/26 05:29:33;;;;;;;27.98;17.33;;;;;;;15.31;66.34;100246.00;5007472;28;20481;-71
2022/09/26 05:32:00;;;;;;;37.78;17.40;;;;;;;14.86;66.86;100157.13;5009018;28;20057;-72
2022/09/26 05:34:25;;;;;;;31.70;16.88;;;;;;;15.32;66.09;100238.03;5000873;28;20145;-71
2022/09/26 05:36:52;;;;;;;35.65;18.08;;;;;;;15.45;68.14;100254.47;5021013;28;20187;-70
2022/09/26 05:42:11;;;;;;;29.48;18.35;;;;;;;15.63;65.52;100269.06;5015423;28;20060;-72
2022/09/26 05:44:38;;;;;;;35.03;19.08;;;;;;;14.85;66.46;100120.19;5021116;28;20068;-71
2022/09/26 05:47:04;;;;;;;31.98;19.15;;;;;;;15.61;65.75;100241.78;5019662;28;20045;-70
2022/09/26 05:49:35;;;;;;;50.33;22.13;;;;;;;15.29;66.09;100166.75;5019354;28;20478;-72
2022/09/26 05:52:01;;;;;;;30.00;20.33;;;;;;;15.34;66.44;100156.06;5014445;28;20053;-74
2022/09/26 05:54:27;;;;;;;26.85;16.98;;;;;;;15.36;64.63;100133.09;5011831;28;20084;-73
2022/09/26 05:56:52;;;;;;;24.48;17.92;;;;;;;15.51;64.11;100145.94;5012731;28;20470;-74
2022/09/26 05:59:18;;;;;;;25.05;18.30;;;;;;;16.34;63.84;100262.97;5023747;28;20065;-73
2022/09/26 06:01:45;;;;;;;31.85;19.98;;;;;;;16.14;63.02;100217.59;5034311;28;20064;-74
2022/09/26 06:04:13;;;;;;;48.47;20.30;;;;;;;15.95;63.27;100170.44;5026681;28;20044;-74
2022/09/26 06:06:40;;;;;;;24.25;15.95;;;;;;;15.78;59.64;100135.56;5026122;28;20087;-74
2022/09/26 06:09:06;;;;;;;31.83;17.42;;;;;;;16.62;60.74;100255.13;5025773;28;20218;-75
2022/09/26 06:11:32;;;;;;;18.30;15.18;;;;;;;16.67;59.54;100252.38;5007226;28;20420;-73
2022/09/26 06:14:00;;;;;;;24.60;16.35;;;;;;;15.97;58.92;100126.28;5025308;28;20080;-74
2022/09/26 06:16:26;;;;;;;19.17;14.82;;;;;;;16.78;58.57;100258.22;5021634;28;20497;-74
2022/09/26 06:18:54;;;;;;;25.40;17.30;;;;;;;16.64;56.89;100224.16;5028153;28;20099;-75
2022/09/26 06:21:20;;;;;;;20.25;15.02;;;;;;;16.24;57.56;100142.28;5007159;28;20054;-74
2022/09/26 06:23:46;;;;;;;21.27;15.13;;;;;;;16.99;56.94;100261.19;5023383;28;20408;-73
2022/09/26 06:26:16;;;;;;;24.92;15.50;;;;;;;16.55;55.70;100162.63;5018081;28;20045;-73
2022/09/26 06:28:41;;;;;;;26.45;17.60;;;;;;;17.05;54.18;100229.22;5037941;28;20033;-77
2022/09/26 06:31:15;;;;;;;34.75;17.25;;;;;;;17.22;54.84;100260.53;5017152;28;20033;-74
2022/09/26 06:33:41;;;;;;;30.30;16.25;;;;;;;16.50;54.84;100141.56;5013907;28;20053;-76
2022/09/26 06:36:09;;;;;;;23.77;17.00;;;;;;;17.41;55.13;100269.66;5025929;28;20045;-73
2022/09/26 06:38:35;;;;;;;21.67;14.48;;;;;;;16.81;55.67;100165.44;5022873;28;20092;-75
2022/09/26 06:41:01;;;;;;;22.45;16.25;;;;;;;17.37;55.57;100253.88;5035428;28;20041;-74
2022/09/26 06:43:27;;;;;;;24.42;15.68;;;;;;;17.54;54.71;100271.97;5031757;28;20082;-74
2022/09/26 06:45:53;;;;;;;32.58;14.05;;;;;;;17.09;54.98;100157.50;5027390;28;20057;-74
2022/09/26 06:48:23;;;;;;;25.05;14.18;;;;;;;17.51;55.09;100257.88;5026878;28;20045;-74
2022/09/26 06:50:53;;;;;;;27.95;16.60;;;;;;;17.64;54.19;100241.56;5015309;28;20057;-74
2022/09/26 06:53:20;;;;;;;27.30;14.55;;;;;;;17.05;55.21;100137.28;5021003;28;20171;-75
2022/09/26 06:55:45;;;;;;;32.55;14.68;;;;;;;17.79;53.84;100266.72;5005238;28;20095;-75
2022/09/26 06:58:11;;;;;;;27.05;16.08;;;;;;;17.24;51.29;100145.53;5028849;28;20037;-74
2022/09/26 07:00:37;;;;;;;18.65;14.38;;;;;;;18.08;50.12;100244.59;5032427;28;20041;-75
2022/09/26 07:03:04;;;;;;;23.67;15.05;;;;;;;18.23;50.03;100257.31;5025846;28;20050;-74
2022/09/26 07:05:30;;;;;;;18.83;13.80;;;;;;;18.09;50.68;100233.03;5026942;28;20136;-74
2022/09/26 07:07:56;;;;;;;35.20;13.68;;;;;;;18.29;49.59;100259.78;5002030;28;20103;-74
2022/09/26 07:10:23;;;;;;;38.38;13.98;;;;;;;18.40;49.62;100271.81;5022477;28;20036;-75
2022/09/26 07:12:48;;;;;;;20.80;12.05;;;;;;;17.80;47.88;100144.59;5042288;28;20044;-75
2022/09/26 07:15:16;;;;;;;22.60;12.35;;;;;;;17.85;48.24;100155.09;5020043;28;20605;-73
2022/09/26 07:17:43;;;;;;;17.10;12.15;;;;;;;18.67;47.66;100270.84;5007222;28;20073;-74
2022/09/26 07:20:18;;;;;;;13.93;9.45;;;;;;;17.98;46.54;100135.16;4995439;28;20050;-72
2022/09/26 07:22:43;;;;;;;465.42;347.98;;;;;;;18.93;53.31;100136.13;5007681;28;20038;-73
2022/09/26 07:25:09;;;;;;;456.88;375.98;;;;;;;19.94;50.82;100246.50;5007550;28;20387;-72
2022/09/26 07:27:35;;;;;;;36.22;18.63;;;;;;;18.93;46.22;100163.56;4998078;28;20152;-73
2022/09/26 07:30:01;;;;;;;354.00;263.10;;;;;;;19.88;51.17;100245.88;4982710;28;20670;-74
2022/09/26 07:32:29;;;;;;;272.58;202.45;;;;;;;19.58;50.36;100199.13;5008779;28;20049;-73
2022/09/26 07:34:58;;;;;;;247.45;182.35;;;;;;;20.06;49.61;100247.78;4994326;28;20161;-74
2022/09/26 07:37:24;;;;;;;100.10;68.30;;;;;;;19.73;45.98;100239.41;5005858;28;20046;-74
2022/09/26 07:39:50;;;;;;;210.88;151.05;;;;;;;19.97;49.26;100221.53;5001576;28;20124;-75
2022/09/26 07:42:16;;;;;;;164.32;112.88;;;;;;;20.10;48.31;100222.75;5026267;28;20053;-76
2022/09/26 07:44:47;;;;;;;16.67;10.30;;;;;;;19.49;43.49;100137.44;5002149;28;20085;-77
2022/09/26 07:50:10;;;;;;;115.72;79.70;;;;;;;20.31;47.17;100220.97;4994252;28;20104;-73
2022/09/26 07:52:36;;;;;;;88.82;59.78;;;;;;;20.30;46.63;100223.69;5015215;28;20139;-76
2022/09/26 07:55:02;;;;;;;41.63;28.05;;;;;;;20.39;44.75;100225.97;5012844;28;20037;-75
2022/09/26 07:57:31;;;;;;;16.48;11.00;;;;;;;20.27;44.10;100210.53;5008804;28;20056;-74
2022/09/26 07:59:57;;;;;;;17.13;8.25;;;;;;;20.08;42.20;100218.44;5003497;28;20056;-74
2022/09/26 08:02:25;;;;;;;71.85;46.40;;;;;;;20.44;45.34;100216.00;4998353;28;20061;-75
2022/09/26 08:04:53;;;;;;;59.38;39.65;;;;;;;20.44;45.18;100200.00;5005614;28;20188;-74
2022/09/26 08:07:19;;;;;;;34.15;16.35;;;;;;;19.81;41.95;100106.84;5004360;28;20470;-76
2022/09/26 08:09:44;;;;;;;56.50;38.83;;;;;;;20.54;44.13;100198.66;4990137;28;20058;-74
2022/09/26 08:12:10;;;;;;;27.95;19.25;;;;;;;20.54;43.46;100197.78;4996120;28;20124;-76
2022/09/26 08:14:36;;;;;;;47.33;32.25;;;;;;;20.56;44.49;100179.97;4997407;28;20861;-76
2022/09/26 08:17:02;;;;;;;19.55;9.80;;;;;;;20.56;41.50;100196.81;5011966;28;20467;-75
2022/09/26 08:19:27;;;;;;;42.75;27.33;;;;;;;20.73;44.25;100188.03;5019352;28;20096;-75
2022/09/26 08:21:53;;;;;;;13.05;7.47;;;;;;;20.41;39.96;100082.84;5019723;28;20051;-75
2022/09/26 08:24:18;;;;;;;9.65;6.47;;;;;;;21.00;39.65;100172.59;5019748;28;20156;-77
2022/09/26 08:26:44;;;;;;;19.42;9.52;;;;;;;20.73;40.10;100131.19;5015542;28;20056;-74
2022/09/26 08:29:11;;;;;;;28.65;21.95;;;;;;;20.74;42.07;100143.56;5003599;28;20065;-75
2022/09/26 08:31:37;;;;;;;34.60;25.15;;;;;;;20.90;43.31;100162.41;5010066;28;20127;-75
2022/09/26 08:34:04;;;;;;;8.77;5.63;;;;;;;21.12;38.20;100163.13;5029353;28;20844;-72
2022/09/26 08:36:29;;;;;;;41.30;25.77;;;;;;;20.68;41.48;100080.75;5027035;28;20136;-73
2022/09/26 08:38:56;;;;;;;36.97;27.83;;;;;;;21.17;43.46;100168.25;5022341;28;20120;-73
2022/09/26 08:41:31;;;;;;;29.58;19.85;;;;;;;21.25;40.16;100171.41;5014978;28;20132;-71
2022/09/26 08:44:13;;;;;;;36.53;22.88;;;;;;;20.70;42.36;100078.88;5029967;28;20049;-72
2022/09/26 08:46:57;;;;;;;29.80;17.38;;;;;;;21.38;40.55;100177.03;5033456;28;20500;-72
2022/09/26 08:49:38;;;;;;;17.65;12.70;;;;;;;21.31;41.18;100172.94;5016529;28;20037;-77
2022/09/26 08:52:17;;;;;;;9.00;5.28;;;;;;;20.99;37.70;100065.94;5016276;28;20061;-73
2022/09/26 08:54:45;;;;;;;13.93;6.22;;;;;;;20.83;40.07;100063.13;5026139;28;20069;-70
2022/09/26 08:57:20;;;;;;;15.48;8.98;;;;;;;21.64;38.33;100167.75;5021565;28;20488;-71
2022/09/26 08:59:47;;;;;;;40.28;17.08;;;;;;;20.89;40.71;100049.53;5022537;28;20088;-71
2022/09/26 09:02:26;;;;;;;16.38;12.63;;;;;;;20.84;39.32;100036.41;5013549;28;20048;-74
2022/09/26 09:05:01;;;;;;;17.60;14.50;;;;;;;21.46;39.28;100126.81;5029123;28;20029;-75
2022/09/26 09:07:26;;;;;;;21.58;16.48;;;;;;;20.84;41.24;100023.06;5006197;28;20812;-72
2022/09/26 09:10:21;;;;;;;20.63;10.93;;;;;;;21.67;38.05;100136.41;5023437;28;20053;-75
2022/09/26 09:13:26;;;;;;;17.23;11.77;;;;;;;21.03;38.68;100025.69;5010751;28;20041;-74
2022/09/26 09:16:07;;;;;;;20.05;12.00;;;;;;;20.99;37.57;100008.09;5026619;28;20079;-73
2022/09/26 09:18:45;;;;;;;24.05;10.02;;;;;;;21.68;39.53;100146.16;5014501;28;20064;-71
2022/09/26 09:21:42;;;;;;;14.10;9.60;;;;;;;21.90;38.01;100139.72;5010950;28;20417;-69
2022/09/26 09:24:45;;;;;;;28.15;11.63;;;;;;;21.97;40.08;100148.28;4973146;28;20062;-70
2022/09/26 09:27:29;;;;;;;6.70;4.28;;;;;;;22.28;36.01;100153.78;5023334;28;20061;-70
2022/09/26 09:30:13;;;;;;;14.43;8.10;;;;;;;22.26;38.73;100142.31;5023564;28;20395;-77
2022/09/26 09:32:53;;;;;;;16.10;12.05;;;;;;;22.22;39.88;100151.47;5016888;28;20057;-79
2022/09/26 09:35:37;;;;;;;20.08;6.57;;;;;;;21.65;35.35;100007.44;5020038;28;20592;-78
2022/09/26 09:38:06;;;;;;;13.63;5.57;;;;;;;22.23;34.54;100089.03;5020204;28;20034;-79
2022/09/26 09:40:41;;;;;;;11.35;4.72;;;;;;;22.46;35.45;100122.53;5024619;28;20339;-82
2022/09/26 09:43:30;;;;;;;12.55;6.35;;;;;;;22.46;36.46;100116.34;5016056;28;20050;-78
2022/09/26 09:46:27;;;;;;;21.85;4.57;;;;;;;22.93;33.68;100118.19;5017402;28;20450;-75
2022/09/26 09:49:22;;;;;;;12.10;6.90;;;;;;;21.79;37.93;99998.69;5009683;28;20131;-75
2022/09/26 09:52:06;;;;;;;12.77;7.07;;;;;;;22.54;36.42;100114.09;5035570;28;20072;-73
2022/09/26 09:54:50;;;;;;;9.93;5.10;;;;;;;22.53;35.50;100107.03;5027238;28;20144;-76
2022/09/26 09:57:25;;;;;;;12.43;4.93;;;;;;;21.87;38.01;99985.81;5027540;28;20041;-77
2022/09/26 10:00:15;;;;;;;41.05;20.52;;;;;;;22.39;38.26;100110.44;5028221;28;20057;-76
2022/09/26 10:02:58;;;;;;;12.05;5.95;;;;;;;21.89;34.78;99975.03;5021476;28;20841;-82
2022/09/26 10:05:38;;;;;;;18.63;7.80;;;;;;;22.79;36.18;100108.25;5035851;28;20780;-76
2022/09/26 10:08:10;;;;;;;22.58;11.25;;;;;;;22.51;37.14;100085.72;5023068;28;20044;-79
2022/09/26 10:10:48;;;;;;;12.35;8.55;;;;;;;22.34;36.01;100002.91;5028959;28;20062;-82
2022/09/26 10:13:16;;;;;;;18.85;11.07;;;;;;;22.76;36.36;100103.09;5041134;28;20041;-75
2022/09/26 10:15:56;;;;;;;11.65;8.63;;;;;;;22.98;34.45;100094.72;5030420;28;20053;-78
2022/09/26 10:18:22;;;;;;;13.65;9.13;;;;;;;23.28;35.34;100108.19;5029622;28;20077;-78
2022/09/26 10:20:52;;;;;;;13.35;7.50;;;;;;;23.34;34.64;100083.75;5016197;28;20548;-79
2022/09/26 10:23:23;;;;;;;31.90;10.63;;;;;;;23.63;35.48;100091.03;5025229;28;20088;-81
2022/09/26 10:25:50;;;;;;;10.85;7.65;;;;;;;23.73;34.07;100097.56;5025014;28;20207;-75
2022/09/26 10:28:48;;;;;;;10.85;7.05;;;;;;;22.67;36.10;99956.50;5033158;28;20044;-78
2022/09/26 10:31:28;;;;;;;16.38;6.15;;;;;;;23.16;33.86;99985.78;5031761;28;20065;-75
2022/09/26 10:34:05;;;;;;;11.10;7.85;;;;;;;23.27;36.35;100087.75;5024882;28;20038;-78
2022/09/26 10:36:35;;;;;;;10.15;5.78;;;;;;;22.93;34.95;99976.38;5018669;28;20511;-84
2022/09/26 10:42:24;;;;;;;9.50;4.40;;;;;;;23.74;33.84;100072.50;5022351;28;20135;-86
2022/09/26 10:44:56;;;;;;;13.73;6.25;;;;;;;23.10;35.19;99954.00;5022584;28;20520;-82
2022/09/26 10:47:28;;;;;;;11.50;4.85;;;;;;;23.00;34.25;99975.09;5016324;28;20061;-84
2022/09/26 10:50:05;;;;;;;11.23;4.53;;;;;;;23.28;34.05;100017.16;5024670;28;20060;-85
2022/09/26 10:52:48;;;;;;;6.47;4.47;;;;;;;23.62;34.36;100066.03;5016336;28;20469;-83
2022/09/26 10:55:25;;;;;;;6.70;4.53;;;;;;;23.24;34.27;99975.47;5025325;28;20140;-86
2022/09/26 10:57:58;;;;;;;16.15;14.30;;;;;;;23.91;34.87;100058.97;5014039;28;20058;-80
2022/09/26 11:00:37;;;;;;;;;;;;;;;23.84;34.95;100059.44;5029509;28;20115;-85
2022/09/26 11:03:16;;;;;;;7.10;4.60;;;;;;;23.74;36.88;100054.63;5026157;28;19937;-84
2022/09/26 11:05:57;;;;;;;12.00;5.47;;;;;;;23.12;35.11;99942.25;5035316;28;21225;-85
2022/09/26 11:08:31;;;;;;;8.35;5.13;;;;;;;23.09;35.38;99963.84;5019130;28;20104;-84
2022/09/26 11:10:59;;;;;;;11.35;5.82;;;;;;;23.63;35.89;100053.53;5032644;28;20497;-78
2022/09/26 11:13:28;;;;;;;7.60;4.30;;;;;;;23.47;36.53;100053.56;5016593;28;20113;-77
2022/09/26 11:16:02;;;;;;;8.38;4.72;;;;;;;23.28;36.18;100001.09;5019079;28;20057;-77
2022/09/26 11:18:41;;;;;;;11.30;4.55;;;;;;;23.52;36.24;100068.41;5027574;28;20073;-76
2022/09/26 11:21:18;;;;;;;6.07;3.78;;;;;;;22.91;35.93;99941.69;5012046;28;20049;-76
2022/09/26 11:23:52;;;;;;;13.15;4.35;;;;;;;23.67;36.03;100055.94;5015656;28;20465;-74
2022/09/26 11:26:52;;;;;;;11.50;4.22;;;;;;;23.66;36.25;100046.16;5025764;28;20041;-76
2022/09/26 11:29:42;;;;;;;6.95;4.10;;;;;;;23.46;36.09;100022.38;5029509;28;20064;-75
2022/09/26 11:32:27;;;;;;;7.15;4.03;;;;;;;23.03;37.16;99947.28;5024154;28;20512;-76
2022/09/26 11:34:53;;;;;;;12.70;5.25;;;;;;;23.32;36.82;99993.72;5018018;28;20469;-75
2022/09/26 11:37:57;;;;;;;6.35;3.55;;;;;;;23.58;38.31;100035.03;5012153;28;20042;-74
2022/09/26 11:40:38;;;;;;;10.70;4.53;;;;;;;23.74;38.34;100014.44;5022844;28;20057;-76
2022/09/26 11:43:28;;;;;;;7.28;4.15;;;;;;;23.57;37.58;99977.06;5022176;28;20049;-78
2022/09/26 11:46:33;;;;;;;6.65;3.75;;;;;;;23.61;38.19;100032.19;5024365;28;20144;-78